Time;durP1;ratioP1;P1;durP2;ratioP2;P2;SDS_P1;SDS_P2;PMS_P1;PMS_P2;Temp;Humidity;BMP_temperature;BMP_pressure;BME280_temperature;BME280_humidity;BME280_pressure;Samples;Min_cycle;Max_cycle;Signal;HPM_P1;HPM_P2
2022/10/05 00:02:19;;;;;;;;;;;15.60;99.90;;;;;;5073184;28;20053;-75
2022/10/05 00:04:46;;;;;;;;;;;15.70;99.90;;;;;;5072449;28;19914;-75
2022/10/05 00:07:14;;;;;;;;;;;15.60;99.90;;;;;;5072620;28;19962;-75
2022/10/05 00:09:39;;;;;;;;;;;15.60;99.90;;;;;;5072320;28;19913;-76
2022/10/05 00:12:11;;;;;;;;;;;15.60;99.90;;;;;;5071685;28;19909;-75
2022/10/05 00:14:38;;;;;;;;;;;15.60;99.90;;;;;;5072414;28;19909;-76
2022/10/05 00:17:04;;;;;;;;;;;15.60;99.90;;;;;;5072408;28;20487;-78
2022/10/05 00:19:29;;;;;;;;;;;15.60;99.90;;;;;;5072151;28;19995;-78
2022/10/05 00:21:57;;;;;;;;;;;15.60;99.90;;;;;;5073341;28;19908;-80
2022/10/05 00:24:23;;;;;;;;;;;15.50;99.90;;;;;;5073745;28;19916;-81
2022/10/05 00:26:49;;;;;;;;;;;15.50;99.90;;;;;;5105537;27;19916;-79
2022/10/05 00:29:22;;;;;;;;;;;15.50;99.90;;;;;;5073334;28;19917;-78
2022/10/05 00:31:48;;;;;;;;;;;15.50;99.90;;;;;;5072867;28;19939;-80
2022/10/05 00:34:14;;;;;;;;;;;15.50;99.90;;;;;;5073483;28;20273;-82
2022/10/05 00:36:40;;;;;;;;;;;15.50;99.90;;;;;;5072759;28;19962;-82
2022/10/05 00:39:05;;;;;;;;;;;15.40;99.90;;;;;;5073660;28;20316;-83
2022/10/05 00:41:37;;;;;;;;;;;15.40;99.90;;;;;;5076473;28;19930;-82
2022/10/05 00:44:22;;;;;;;;;;;15.40;99.90;;;;;;5082426;28;19920;-82
2022/10/05 00:46:51;;;;;;;;;;;15.40;99.90;;;;;;5084301;28;19982;-82
2022/10/05 00:49:16;;;;;;;;;;;15.40;99.90;;;;;;5081178;28;20357;-80
2022/10/05 00:51:46;;;;;;;;;;;15.40;99.90;;;;;;5086366;28;19915;-81
2022/10/05 00:54:33;;;;;;;;;;;15.40;99.90;;;;;;5071670;28;19957;-80
2022/10/05 00:57:16;;;;;;;;;;;15.30;99.90;;;;;;5072991;28;19915;-78
2022/10/05 00:59:48;;;;;;;;;;;15.40;99.90;;;;;;5072073;28;20373;-80
2022/10/05 01:02:16;;;;;;;;;;;15.30;99.90;;;;;;5072752;28;19912;-80
2022/10/05 01:04:50;;;;;;;;;;;15.30;99.90;;;;;;5071922;28;19915;-79
2022/10/05 01:07:25;;;;;;;;;;;15.30;99.90;;;;;;5072673;28;19974;-79
2022/10/05 01:10:02;;;;;;;;;;;15.30;99.90;;;;;;5072030;28;19917;-78
2022/10/05 01:12:28;;;;;;;;;;;15.30;99.90;;;;;;5076023;28;19924;-78
2022/10/05 01:14:56;;;;;;;;;;;15.30;99.90;;;;;;5072221;28;19919;-77
2022/10/05 01:17:28;;;;;;;;;;;15.30;99.90;;;;;;5105222;27;19915;-77
2022/10/05 01:20:13;;;;;;;;;;;15.30;99.90;;;;;;5072214;28;20003;-77
2022/10/05 01:22:57;;;;;;;;;;;15.30;99.90;;;;;;5071823;28;19908;-78
2022/10/05 01:25:22;;;;;;;;;;;15.30;99.90;;;;;;5073589;28;19915;-80
2022/10/05 01:27:52;;;;;;;;;;;15.30;99.90;;;;;;5076155;28;19995;-82
2022/10/05 01:30:19;;;;;;;;;;;15.30;99.90;;;;;;5076595;28;20285;-83
2022/10/05 01:32:52;;;;;;;;;;;15.00;99.90;;;;;;5074810;28;20377;-83
2022/10/05 01:35:31;;;;;;;;;;;14.80;99.90;;;;;;5075427;28;20699;-83
2022/10/05 01:37:57;;;;;;;;;;;14.60;99.90;;;;;;5076457;28;19908;-83
2022/10/05 01:40:31;;;;;;;;;;;14.40;99.90;;;;;;5109182;27;20415;-82
2022/10/05 01:43:16;;;;;;;;;;;14.20;99.90;;;;;;5108613;27;20321;-81
2022/10/05 01:45:41;;;;;;;;;;;14.10;99.90;;;;;;5075895;28;19912;-80
2022/10/05 01:48:12;;;;;;;;;;;14.00;99.90;;;;;;5076100;28;19917;-76
2022/10/05 01:50:46;;;;;;;;;;;14.00;99.90;;;;;;5080679;28;19962;-76
2022/10/05 01:53:19;;;;;;;;;;;13.80;99.90;;;;;;5084103;28;20362;-76
2022/10/05 01:55:48;;;;;;;;;;;13.70;99.90;;;;;;5073708;28;20367;-76
2022/10/05 01:58:30;;;;;;;;;;;13.70;99.90;;;;;;5075905;28;19958;-77
2022/10/05 02:01:03;;;;;;;;;;;13.70;99.90;;;;;;5075614;28;20011;-77
2022/10/05 02:03:34;;;;;;;;;;;13.70;99.90;;;;;;5076299;28;19909;-76
2022/10/05 02:06:05;;;;;;;;;;;13.70;99.90;;;;;;5075891;28;19999;-76
2022/10/05 02:08:33;;;;;;;;;;;13.60;99.90;;;;;;5075885;28;20362;-76
2022/10/05 02:11:06;;;;;;;;;;;13.60;99.90;;;;;;5075481;28;20370;-76
2022/10/05 02:14:01;;;;;;;;;;;13.70;99.90;;;;;;5075684;28;19953;-76
2022/10/05 02:16:27;;;;;;;;;;;13.70;99.90;;;;;;5070998;28;19909;-76
2022/10/05 02:18:55;;;;;;;;;;;13.70;99.90;;;;;;5075101;28;20656;-76
2022/10/05 02:21:21;;;;;;;;;;;13.70;99.90;;;;;;5075600;28;19909;-76
2022/10/05 02:23:49;;;;;;;;;;;13.70;99.90;;;;;;5075180;28;20384;-76
2022/10/05 02:26:15;;;;;;;;;;;13.70;99.90;;;;;;5076026;28;20381;-76
2022/10/05 02:28:47;;;;;;;;;;;13.70;99.90;;;;;;5075102;28;19962;-76
2022/10/05 02:31:18;;;;;;;;;;;13.70;99.90;;;;;;5075797;28;19915;-76
2022/10/05 02:33:44;;;;;;;;;;;13.70;99.90;;;;;;5107908;28;19910;-76
2022/10/05 02:36:12;;;;;;;;;;;13.70;99.90;;;;;;5075619;28;20011;-77
2022/10/05 02:38:58;;;;;;;;;;;13.70;99.90;;;;;;5075497;28;19908;-77
2022/10/05 02:41:49;;;;;;;;;;;13.70;99.90;;;;;;5075651;28;19989;-77
2022/10/05 02:44:39;;;;;;;;;;;13.80;99.90;;;;;;5075121;28;19924;-77
2022/10/05 02:47:11;;;;;;;;;;;13.80;99.90;;;;;;5075545;28;20365;-78
2022/10/05 02:49:50;;;;;;;;;;;13.80;99.90;;;;;;5075161;28;19913;-79
2022/10/05 02:52:28;;;;;;;;;;;13.80;99.90;;;;;;5075376;28;19958;-80
2022/10/05 02:54:53;;;;;;;;;;;13.80;99.90;;;;;;5074577;28;19961;-78
2022/10/05 02:57:27;;;;;;;;;;;13.70;99.90;;;;;;5075319;28;19909;-78
2022/10/05 02:59:57;;;;;;;;;;;13.70;99.90;;;;;;5074819;28;20285;-77
2022/10/05 03:02:22;;;;;;;;;;;13.70;99.90;;;;;;5075249;28;19951;-76
2022/10/05 03:04:56;;;;;;;;;;;13.70;99.90;;;;;;5074375;28;19993;-77
2022/10/05 03:07:31;;;;;;;;;;;13.70;99.90;;;;;;5075327;28;19920;-80
2022/10/05 03:10:12;;;;;;;;;;;13.70;99.90;;;;;;5073313;28;20306;-81
2022/10/05 03:12:43;;;;;;;;;;;13.70;99.90;;;;;;5074636;28;19908;-80
2022/10/05 03:15:23;;;;;;;;;;;13.70;99.90;;;;;;5074881;28;19916;-82
2022/10/05 03:17:56;;;;;;;;;;;13.60;99.90;;;;;;5074238;28;19912;-82
2022/10/05 03:20:40;;;;;;;;;;;13.70;99.90;;;;;;5074973;28;19914;-83
2022/10/05 03:23:10;;;;;;;;;;;13.60;99.90;;;;;;5075230;28;19909;-83
2022/10/05 03:25:39;;;;;;;;;;;13.60;99.90;;;;;;5074856;28;19913;-82
2022/10/05 03:28:13;;;;;;;;;;;13.50;99.90;;;;;;5074247;28;19977;-82
2022/10/05 03:30:57;;;;;;;;;;;13.50;99.90;;;;;;5074284;28;20102;-80
2022/10/05 03:33:45;;;;;;;;;;;13.40;99.90;;;;;;5074417;28;20290;-83
2022/10/05 03:36:16;;;;;;;;;;;13.30;99.90;;;;;;5075089;28;19909;-82
2022/10/05 03:38:44;;;;;;;;;;;13.20;99.90;;;;;;5073918;28;20341;-79
2022/10/05 03:41:18;;;;;;;;;;;13.00;99.90;;;;;;5074361;28;19908;-81
2022/10/05 03:43:44;;;;;;;;;;;12.90;99.90;;;;;;5073533;28;19920;-83
2022/10/05 03:46:18;;;;;;;;;;;12.80;99.90;;;;;;5074322;28;19913;-82
2022/10/05 03:48:43;;;;;;;;;;;12.80;99.90;;;;;;5073142;28;20277;-80
2022/10/05 03:51:09;;;;;;;;;;;12.70;99.90;;;;;;5074607;28;19916;-80
2022/10/05 03:53:43;;;;;;;;;;;12.70;99.90;;;;;;5074259;28;19908;-80
2022/10/05 03:56:13;;;;;;;;;;;12.60;99.90;;;;;;5074286;28;20009;-79
2022/10/05 03:58:41;;;;;;;;;;;12.60;99.90;;;;;;5072939;28;20314;-80
2022/10/05 04:01:12;;;;;;;;;;;12.60;99.90;;;;;;5073633;28;19967;-79
2022/10/05 04:03:41;;;;;;;;;;;12.50;99.90;;;;;;5073815;28;19916;-78
2022/10/05 04:06:13;;;;;;;;;;;12.50;99.90;;;;;;5073431;28;20377;-77
2022/10/05 04:08:44;;;;;;;;;;;12.60;99.90;;;;;;5074369;28;19912;-77
2022/10/05 04:11:13;;;;;;;;;;;12.50;99.90;;;;;;5073954;28;19909;-76
2022/10/05 04:14:01;;;;;;;;;;;12.50;99.90;;;;;;5073863;28;19999;-76
2022/10/05 04:16:30;;;;;;;;;;;12.60;99.90;;;;;;5074435;28;19948;-77
2022/10/05 04:19:04;;;;;;;;;;;12.50;99.90;;;;;;5073213;28;19932;-76
2022/10/05 04:21:29;;;;;;;;;;;12.50;99.90;;;;;;5073586;28;20298;-76
2022/10/05 04:24:00;;;;;;;;;;;12.50;99.90;;;;;;5073122;28;19908;-77
2022/10/05 04:26:46;;;;;;;;;;;12.40;99.90;;;;;;5086469;28;20006;-76
2022/10/05 04:29:24;;;;;;;;;;;12.40;99.90;;;;;;5093695;28;20373;-76
2022/10/05 04:31:49;;;;;;;;;;;12.40;99.90;;;;;;5093545;28;19970;-76
2022/10/05 04:34:29;;;;;;;;;;;12.40;99.90;;;;;;5093744;28;20377;-77
2022/10/05 04:36:58;;;;;;;;;;;12.50;99.90;;;;;;5093168;28;20002;-76
2022/10/05 04:39:37;;;;;;;;;;;12.40;99.90;;;;;;5093659;28;19912;-75
2022/10/05 04:42:10;;;;;;;;;;;12.40;99.90;;;;;;5093061;28;19912;-76
2022/10/05 04:44:35;;;;;;;;;;;12.40;99.90;;;;;;5093635;28;19927;-76
2022/10/05 04:47:19;;;;;;;;;;;12.30;99.90;;;;;;5092558;28;19912;-76
2022/10/05 04:49:54;;;;;;;;;;;12.30;99.90;;;;;;5092958;28;19916;-76
2022/10/05 04:52:36;;;;;;;;;;;12.20;99.90;;;;;;5093273;28;19931;-76
2022/10/05 04:55:08;;;;;;;;;;;12.30;99.90;;;;;;5092941;28;19940;-76
2022/10/05 04:57:36;;;;;;;;;;;12.30;99.90;;;;;;5093069;28;19915;-76
2022/10/05 05:00:07;;;;;;;;;;;12.20;99.90;;;;;;5091964;28;20002;-76
2022/10/05 05:02:36;;;;;;;;;;;12.10;99.90;;;;;;5092953;28;19908;-75
2022/10/05 05:05:20;;;;;;;;;;;12.20;99.90;;;;;;5092765;28;19915;-76
2022/10/05 05:07:51;;;;;;;;;;;12.30;99.90;;;;;;5093063;28;19938;-76
2022/10/05 05:10:31;;;;;;;;;;;12.20;99.90;;;;;;5092964;28;20021;-77
2022/10/05 05:13:03;;;;;;;;;;;12.20;99.90;;;;;;5092670;28;19958;-77
2022/10/05 05:15:31;;;;;;;;;;;12.10;99.90;;;;;;5093008;28;20007;-77
2022/10/05 05:18:02;;;;;;;;;;;12.00;99.90;;;;;;5092576;28;19908;-81
2022/10/05 05:20:31;;;;;;;;;;;12.00;99.90;;;;;;5093164;28;19908;-81
2022/10/05 05:23:02;;;;;;;;;;;12.10;99.90;;;;;;5092315;28;19999;-81
2022/10/05 05:25:28;;;;;;;;;;;12.10;99.90;;;;;;5091705;28;19908;-80
2022/10/05 05:28:05;;;;;;;;;;;12.00;99.90;;;;;;5092732;28;19916;-79
2022/10/05 05:30:43;;;;;;;;;;;12.00;99.90;;;;;;5092785;28;20365;-78
2022/10/05 05:33:22;;;;;;;;;;;12.00;99.90;;;;;;5092301;28;19915;-78
2022/10/05 05:35:57;;;;;;;;;;;12.00;99.90;;;;;;5092364;28;19908;-77
2022/10/05 05:38:25;;;;;;;;;;;12.00;99.90;;;;;;5092551;28;20004;-79
2022/10/05 05:41:09;;;;;;;;;;;12.10;99.90;;;;;;5091063;28;19947;-78
2022/10/05 05:43:35;;;;;;;;;;;12.00;99.90;;;;;;5092512;28;20489;-78
2022/10/05 05:46:05;;;;;;;;;;;12.00;99.90;;;;;;5090828;28;19922;-78
2022/10/05 05:48:41;;;;;;;;;;;12.00;99.90;;;;;;5092944;28;20276;-76
2022/10/05 05:51:16;;;;;;;;;;;12.00;99.90;;;;;;5091979;28;19915;-78
2022/10/05 05:53:49;;;;;;;;;;;12.00;99.90;;;;;;5092213;28;19908;-77
2022/10/05 05:56:36;;;;;;;;;;;12.00;99.90;;;;;;5092798;28;19912;-78
2022/10/05 05:59:22;;;;;;;;;;;12.00;99.90;;;;;;5092086;28;19909;-78
2022/10/05 06:02:14;;;;;;;;;;;11.90;99.90;;;;;;5092278;28;19909;-78
2022/10/05 06:04:48;;;;;;;;;;;12.00;99.90;;;;;;5090066;28;19954;-76
2022/10/05 06:07:21;;;;;;;;;;;12.00;99.90;;;;;;5092003;28;19913;-77
2022/10/05 06:10:13;;;;;;;;;;;12.00;99.90;;;;;;5092211;28;19912;-76
2022/10/05 06:12:42;;;;;;;;;;;12.00;99.90;;;;;;5078641;28;19912;-75
2022/10/05 06:15:30;;;;;;;;;;;11.90;99.90;;;;;;5095145;28;19912;-75
2022/10/05 06:17:57;;;;;;;;;;;12.00;99.90;;;;;;5095500;28;19995;-76
2022/10/05 06:20:29;;;;;;;;;;;12.00;99.90;;;;;;5096247;28;19915;-76
2022/10/05 06:22:56;;;;;;;;;;;12.00;99.90;;;;;;5095755;28;19916;-77
2022/10/05 06:25:27;;;;;;;;;;;12.00;99.90;;;;;;5095991;28;19915;-75
2022/10/05 06:28:02;;;;;;;;;;;11.90;99.90;;;;;;5095557;28;20265;-77
2022/10/05 06:30:32;;;;;;;;;;;11.90;99.90;;;;;;5095926;28;19908;-75
2022/10/05 06:32:57;;;;;;;;;;;11.90;99.90;;;;;;5095619;28;19915;-76
2022/10/05 06:35:29;;;;;;;;;;;11.90;99.90;;;;;;5095641;28;20015;-76
2022/10/05 06:37:54;;;;;;;;;;;11.90;99.90;;;;;;5095126;28;20002;-76
2022/10/05 06:40:26;;;;;;;;;;;11.90;99.90;;;;;;5095839;28;20325;-75
2022/10/05 06:42:52;;;;;;;;;;;11.90;99.90;;;;;;5095410;28;19920;-76
2022/10/05 06:45:20;;;;;;;;;;;11.90;99.90;;;;;;5095118;28;19930;-77
2022/10/05 06:47:53;;;;;;;;;;;12.00;99.90;;;;;;5095021;28;20401;-77
2022/10/05 06:50:38;;;;;;;;;;;11.90;99.90;;;;;;5094725;28;20373;-77
2022/10/05 06:53:07;;;;;;;;;;;11.90;99.90;;;;;;5087146;28;19919;-77
2022/10/05 06:55:41;;;;;;;;;;;11.90;99.90;;;;;;5094897;28;19934;-77
2022/10/05 06:58:19;;;;;;;;;;;12.00;99.90;;;;;;5091629;28;19912;-77
2022/10/05 07:00:49;;;;;;;;;;;12.00;99.90;;;;;;5095283;28;19912;-77
2022/10/05 07:03:20;;;;;;;;;;;11.90;99.90;;;;;;5094641;28;19912;-77
2022/10/05 07:05:52;;;;;;;;;;;11.90;99.90;;;;;;5093904;28;19912;-77
2022/10/05 07:08:31;;;;;;;;;;;11.90;99.90;;;;;;5094433;28;19965;-77
2022/10/05 07:10:59;;;;;;;;;;;11.90;99.90;;;;;;5094792;28;19916;-77
2022/10/05 07:13:31;;;;;;;;;;;11.90;99.90;;;;;;5095161;28;19912;-77
2022/10/05 07:16:15;;;;;;;;;;;11.90;99.90;;;;;;5094377;28;19912;-77
2022/10/05 07:18:46;;;;;;;;;;;11.90;99.90;;;;;;5093876;28;20408;-77
2022/10/05 07:21:25;;;;;;;;;;;11.90;99.90;;;;;;5094004;28;19995;-76
2022/10/05 07:24:03;;;;;;;;;;;11.90;99.90;;;;;;5093526;28;19908;-75
2022/10/05 07:26:31;;;;;;;;;;;12.00;99.90;;;;;;5094617;28;20269;-75
2022/10/05 07:29:06;;;;;;;;;;;12.10;99.90;;;;;;5094166;28;19912;-76
2022/10/05 07:31:50;;;;;;;;;;;12.00;99.90;;;;;;5094458;28;19916;-76
2022/10/05 07:34:31;;;;;;;;;;;11.90;99.90;;;;;;5093711;28;20329;-76
2022/10/05 07:39:55;;;;;;;;;;;12.00;99.90;;;;;;5094570;28;20478;-75
2022/10/05 07:42:21;;;;;;;;;;;12.00;99.90;;;;;;5093965;28;20275;-75
2022/10/05 07:44:51;;;;;;;;;;;12.00;99.90;;;;;;5094001;28;19920;-75
2022/10/05 07:47:32;;;;;;;;;;;12.00;99.90;;;;;;5093878;28;20015;-75
2022/10/05 07:50:02;;;;;;;;;;;12.00;99.90;;;;;;5093947;28;20006;-74
2022/10/05 07:52:31;;;;;;;;;;;12.00;99.90;;;;;;5094597;28;20363;-74
2022/10/05 07:54:59;;;;;;;;;;;11.90;99.90;;;;;;5094627;28;19909;-74
2022/10/05 07:57:43;;;;;;;;;;;11.90;99.90;;;;;;5094222;28;19912;-74
2022/10/05 08:00:14;;;;;;;;;;;11.80;99.90;;;;;;5093782;28;20418;-74
2022/10/05 08:03:01;;;;;;;;;;;11.90;99.90;;;;;;5094129;28;19908;-73
2022/10/05 08:05:56;;;;;;;;;;;11.90;99.90;;;;;;5094350;28;20273;-75
2022/10/05 08:08:40;;;;;;;;;;;11.90;99.90;;;;;;5088280;28;20285;-74
2022/10/05 08:11:12;;;;;;;;;;;11.90;99.90;;;;;;5093529;28;19915;-74
2022/10/05 08:13:47;;;;;;;;;;;12.00;99.90;;;;;;5093789;28;19953;-74
2022/10/05 08:16:13;;;;;;;;;;;12.00;99.90;;;;;;5093446;28;19999;-74
2022/10/05 08:18:57;;;;;;;;;;;12.00;99.90;;;;;;5093897;28;20353;-74
2022/10/05 08:21:49;;;;;;;;;;;12.00;99.90;;;;;;5093147;28;20004;-75
2022/10/05 08:24:21;;;;;;;;;;;12.00;99.90;;;;;;5092476;28;19919;-74
2022/10/05 08:26:54;;;;;;;;;;;12.10;99.90;;;;;;5092091;28;19912;-74
2022/10/05 08:29:25;;;;;;;;;;;12.10;99.90;;;;;;5092781;28;19912;-75
2022/10/05 08:31:52;;;;;;;;;;;12.10;99.90;;;;;;5093581;28;19998;-75
2022/10/05 08:34:24;;;;;;;;;;;12.10;99.90;;;;;;5092859;28;19912;-75
2022/10/05 08:37:02;;;;;;;;;;;12.10;99.90;;;;;;5093448;28;19999;-74
2022/10/05 08:39:35;;;;;;;;;;;12.10;99.90;;;;;;5092200;28;20410;-74
2022/10/05 08:42:19;;;;;;;;;;;12.10;99.90;;;;;;5092061;28;19915;-74
2022/10/05 08:45:03;;;;;;;;;;;12.10;99.90;;;;;;5093805;28;19928;-75
2022/10/05 08:47:47;;;;;;;;;;;12.10;99.90;;;;;;5092095;28;19919;-74
2022/10/05 08:50:31;;;;;;;;;;;12.10;99.90;;;;;;5092544;28;19918;-74
2022/10/05 08:53:11;;;;;;;;;;;12.10;99.90;;;;;;5092664;28;20347;-74
2022/10/05 08:55:42;;;;;;;;;;;12.10;99.90;;;;;;5108927;28;19915;-74
2022/10/05 08:58:24;;;;;;;;;;;12.10;99.90;;;;;;5092714;28;20003;-75
2022/10/05 09:00:56;;;;;;;;;;;12.10;99.90;;;;;;5093062;28;19999;-74
2022/10/05 09:03:40;;;;;;;;;;;12.10;99.90;;;;;;5092439;28;19912;-74
2022/10/05 09:06:13;;;;;;;;;;;12.10;99.90;;;;;;5092606;28;19920;-74
2022/10/05 09:08:57;;;;;;;;;;;12.10;99.90;;;;;;5093059;28;20002;-74
2022/10/05 09:11:22;;;;;;;;;;;12.10;99.90;;;;;;5092313;28;20550;-74
2022/10/05 09:13:55;;;;;;;;;;;12.20;99.90;;;;;;5093045;28;19908;-74
2022/10/05 09:16:39;;;;;;;;;;;12.10;99.90;;;;;;5092233;28;19971;-75
2022/10/05 09:19:21;;;;;;;;;;;12.10;99.90;;;;;;5092338;28;19965;-74
2022/10/05 09:21:50;;;;;;;;;;;12.20;99.90;;;;;;5092970;28;19908;-74
2022/10/05 09:24:24;;;;;;;;;;;12.20;99.90;;;;;;5092388;28;19908;-74
2022/10/05 09:27:10;;;;;;;;;;;12.20;99.90;;;;;;5092780;28;19963;-74
2022/10/05 09:30:05;;;;;;;;;;;12.30;99.90;;;;;;5091591;28;20392;-75
2022/10/05 09:32:31;;;;;;;;;;;12.40;99.90;;;;;;5087654;28;20424;-76
2022/10/05 09:34:59;;;;;;;;;;;12.30;99.90;;;;;;5092919;28;19951;-76
2022/10/05 09:37:37;;;;;;;;;;;12.40;99.90;;;;;;5092226;28;19998;-76
2022/10/05 09:40:06;;;;;;;;;;;12.40;99.90;;;;;;5092754;28;19908;-75
2022/10/05 09:42:50;;;;;;;;;;;12.40;99.90;;;;;;5092561;28;19998;-74
2022/10/05 09:45:22;;;;;;;;;;;12.50;99.90;;;;;;5092216;28;19918;-75
2022/10/05 09:47:59;;;;;;;;;;;12.50;99.90;;;;;;5096025;28;19919;-75
2022/10/05 09:50:24;;;;;;;;;;;12.60;99.90;;;;;;5096197;28;19931;-75
2022/10/05 09:53:09;;;;;;;;;;;12.60;99.90;;;;;;5096545;28;19908;-75
2022/10/05 09:55:46;;;;;;;;;;;12.70;99.90;;;;;;5096495;28;19919;-74
2022/10/05 09:58:28;;;;;;;;;;;12.70;99.90;;;;;;5095893;28;19991;-74
2022/10/05 10:01:12;;;;;;;;;;;12.80;99.90;;;;;;5096177;28;19908;-75
2022/10/05 10:03:52;;;;;;;;;;;12.90;99.90;;;;;;5096418;28;19912;-75
2022/10/05 10:06:30;;;;;;;;;;;13.10;99.90;;;;;;5095794;28;19966;-75
2022/10/05 10:08:56;;;;;;;;;;;13.20;99.90;;;;;;5096333;28;19966;-74
2022/10/05 10:11:25;;;;;;;;;;;13.20;99.90;;;;;;5095824;28;19912;-74
2022/10/05 10:13:59;;;;;;;;;;;13.10;99.90;;;;;;5096354;28;19961;-74
2022/10/05 10:16:37;;;;;;;;;;;13.10;99.90;;;;;;5095759;28;19919;-74
2022/10/05 10:19:03;;;;;;;;;;;13.20;99.90;;;;;;5095950;28;19998;-74
2022/10/05 10:21:45;;;;;;;;;;;13.20;99.90;;;;;;5095707;28;19940;-75
2022/10/05 10:24:28;;;;;;;;;;;13.20;99.90;;;;;;5095246;28;19999;-75
2022/10/05 10:26:56;;;;;;;;;;;13.40;99.90;;;;;;5095928;28;19918;-75
2022/10/05 10:29:41;;;;;;;;;;;13.40;99.90;;;;;;5095572;28;20410;-75
2022/10/05 10:32:24;;;;;;;;;;;13.50;99.90;;;;;;5094791;28;20269;-74
2022/10/05 10:34:56;;;;;;;;;;;13.60;99.90;;;;;;5095915;28;19912;-74
2022/10/05 10:37:27;;;;;;;;;;;13.70;99.90;;;;;;5095339;28;19995;-74
2022/10/05 10:40:19;;;;;;;;;;;13.90;99.90;;;;;;5095610;28;19908;-75
2022/10/05 10:43:00;;;;;;;;;;;13.90;99.90;;;;;;5095489;28;20387;-74
2022/10/05 10:45:26;;;;;;;;;;;13.90;99.90;;;;;;5095247;28;19908;-75
2022/10/05 10:48:03;;;;;;;;;;;13.90;99.90;;;;;;5095312;28;19919;-75
2022/10/05 10:50:43;;;;;;;;;;;13.80;99.90;;;;;;5094720;28;20671;-75
2022/10/05 10:53:09;;;;;;;;;;;13.90;99.90;;;;;;5095340;28;20273;-75
2022/10/05 10:55:37;;;;;;;;;;;13.80;99.90;;;;;;5095403;28;19912;-75
2022/10/05 10:58:12;;;;;;;;;;;13.70;99.90;;;;;;5093882;28;19908;-75
2022/10/05 11:00:53;;;;;;;;;;;13.70;99.90;;;;;;5095424;28;20357;-75
2022/10/05 11:03:44;;;;;;;;;;;13.80;99.90;;;;;;5094824;28;19931;-75
2022/10/05 11:06:28;;;;;;;;;;;13.80;99.90;;;;;;5095211;28;19957;-75
2022/10/05 11:08:54;;;;;;;;;;;13.80;99.90;;;;;;5095233;28;19919;-74
2022/10/05 11:11:38;;;;;;;;;;;13.80;99.90;;;;;;5094747;28;19908;-75
2022/10/05 11:14:03;;;;;;;;;;;13.80;99.90;;;;;;5095112;28;19947;-75
2022/10/05 11:16:29;;;;;;;;;;;13.90;99.90;;;;;;5093066;28;19939;-73
2022/10/05 11:19:04;;;;;;;;;;;13.90;99.90;;;;;;5093600;28;19908;-74
2022/10/05 11:21:49;;;;;;;;;;;13.90;99.90;;;;;;5094458;28;20276;-74
2022/10/05 11:24:27;;;;;;;;;;;13.90;99.90;;;;;;5092942;28;19938;-75
2022/10/05 11:27:11;;;;;;;;;;;13.90;99.90;;;;;;5094541;28;19928;-74
2022/10/05 11:29:36;;;;;;;;;;;13.90;99.90;;;;;;5093809;28;19923;-74
2022/10/05 11:32:11;;;;;;;;;;;13.90;99.90;;;;;;5094369;28;19987;-74
2022/10/05 11:34:39;;;;;;;;;;;13.90;99.90;;;;;;5094071;28;19962;-74
2022/10/05 11:37:24;;;;;;;;;;;13.90;99.90;;;;;;5094145;28;20352;-74
2022/10/05 11:40:07;;;;;;;;;;;14.00;99.90;;;;;;5093941;28;19909;-74
2022/10/05 11:42:51;;;;;;;;;;;14.10;99.90;;;;;;5093736;28;19954;-73
2022/10/05 11:45:39;;;;;;;;;;;14.20;99.90;;;;;;5092757;28;19915;-73
2022/10/05 11:48:25;;;;;;;;;;;14.10;99.90;;;;;;5092934;28;19924;-75
2022/10/05 11:50:57;;;;;;;;;;;14.20;99.90;;;;;;5092975;28;19908;-75
2022/10/05 11:53:25;;;;;;;;;;;14.30;99.90;;;;;;5092947;28;19919;-74
2022/10/05 11:56:00;;;;;;;;;;;14.30;99.90;;;;;;5093423;28;20008;-74
2022/10/05 11:58:40;;;;;;;;;;;14.20;99.90;;;;;;5093017;28;19915;-74
2022/10/05 12:01:35;;;;;;;;;;;14.10;99.90;;;;;;5093397;28;19946;-74
2022/10/05 12:04:07;;;;;;;;;;;14.20;99.90;;;;;;5084456;28;19908;-74
2022/10/05 12:06:41;;;;;;;;;;;14.10;99.90;;;;;;5092253;28;19915;-74
2022/10/05 12:09:19;;;;;;;;;;;14.10;99.90;;;;;;5092379;28;19912;-74
2022/10/05 12:11:52;;;;;;;;;;;14.00;99.90;;;;;;5093088;28;20331;-75
2022/10/05 12:14:37;;;;;;;;;;;14.00;99.90;;;;;;5092692;28;19908;-74
2022/10/05 12:17:05;;;;;;;;;;;14.10;99.90;;;;;;5093345;28;19912;-74
2022/10/05 12:19:35;;;;;;;;;;;14.20;99.90;;;;;;5092881;28;20430;-74
2022/10/05 12:22:02;;;;;;;;;;;14.20;99.90;;;;;;5092882;28;19908;-74
2022/10/05 12:24:41;;;;;;;;;;;14.40;99.90;;;;;;5092407;28;19930;-74
2022/10/05 12:27:13;;;;;;;;;;;14.70;99.90;;;;;;5092855;28;19916;-74
2022/10/05 12:29:58;;;;;;;;;;;14.80;99.90;;;;;;5092512;28;19919;-75
2022/10/05 12:32:39;;;;;;;;;;;14.60;99.90;;;;;;5092456;28;19991;-74
2022/10/05 12:35:04;;;;;;;;;;;14.40;99.90;;;;;;5092752;28;19961;-75
2022/10/05 12:37:50;;;;;;;;;;;14.20;99.90;;;;;;5092013;28;19908;-74
2022/10/05 12:40:35;;;;;;;;;;;14.20;99.90;;;;;;5092173;28;19908;-74
2022/10/05 12:43:18;;;;;;;;;;;14.00;99.90;;;;;;5092566;28;19938;-74
2022/10/05 12:46:03;;;;;;;;;;;13.80;99.90;;;;;;5092198;28;19955;-74
2022/10/05 12:48:37;;;;;;;;;;;13.70;99.90;;;;;;5090912;28;21574;-74
2022/10/05 12:51:29;;;;;;;;;;;13.60;99.90;;;;;;5092557;28;19955;-74
2022/10/05 12:54:13;;;;;;;;;;;13.50;99.90;;;;;;5090161;28;20281;-74
2022/10/05 12:56:44;;;;;;;;;;;13.30;99.90;;;;;;5092558;28;19908;-74
2022/10/05 12:59:14;;;;;;;;;;;13.10;99.90;;;;;;5092290;28;19955;-74
2022/10/05 13:01:49;;;;;;;;;;;12.90;99.90;;;;;;5092731;28;20258;-82
2022/10/05 13:04:20;;;;;;;;;;;12.70;99.90;;;;;;5092319;28;20296;-84
2022/10/05 13:06:49;;;;;;;;;;;12.40;99.90;;;;;;5090382;28;19916;-76
2022/10/05 13:09:27;;;;;;;;;;;12.10;99.90;;;;;;5090474;28;20375;-83
2022/10/05 13:11:56;;;;;;;;;;;11.70;99.90;;;;;;5090995;28;20299;-80
2022/10/05 13:14:37;;;;;;;;;;;11.60;99.90;;;;;;5092006;28;19908;-80
2022/10/05 13:17:09;;;;;;;;;;;11.40;99.90;;;;;;5092711;28;19908;-76
2022/10/05 13:19:40;;;;;;;;;;;11.40;99.90;;;;;;5091964;28;19962;-74
2022/10/05 13:22:14;;;;;;;;;;;11.30;99.90;;;;;;5091143;28;20327;-74
2022/10/05 13:24:51;;;;;;;;;;;11.30;99.90;;;;;;5092044;28;19919;-75
2022/10/05 13:27:22;;;;;;;;;;;11.40;99.90;;;;;;5090796;28;20018;-74
2022/10/05 13:29:55;;;;;;;;;;;11.20;99.90;;;;;;5092249;28;19916;-75
2022/10/05 13:32:23;;;;;;;;;;;11.10;99.90;;;;;;5091536;28;20321;-75
2022/10/05 13:35:09;;;;;;;;;;;10.90;99.90;;;;;;5092418;28;20272;-80
2022/10/05 13:37:53;;;;;;;;;;;10.80;99.90;;;;;;5083685;28;19908;-78
2022/10/05 13:40:27;;;;;;;;;;;10.70;99.90;;;;;;5090443;28;19912;-79
2022/10/05 13:43:05;;;;;;;;;;;10.90;99.90;;;;;;5092083;28;19931;-75
2022/10/05 13:45:51;;;;;;;;;;;11.00;99.90;;;;;;5091688;28;19926;-75
2022/10/05 13:48:25;;;;;;;;;;;11.10;99.90;;;;;;5090829;28;19916;-74
2022/10/05 13:51:00;;;;;;;;;;;11.30;99.90;;;;;;5091397;28;20317;-74
2022/10/05 13:53:46;;;;;;;;;;;11.40;99.90;;;;;;5091582;28;19908;-74
2022/10/05 13:56:12;;;;;;;;;;;11.50;99.90;;;;;;5091346;28;20353;-74
2022/10/05 13:58:47;;;;;;;;;;;11.60;99.90;;;;;;5091590;28;19912;-74
2022/10/05 14:01:21;;;;;;;;;;;11.70;99.90;;;;;;5090823;28;20295;-72
2022/10/05 14:04:02;;;;;;;;;;;11.70;99.90;;;;;;5091954;28;19908;-74
2022/10/05 14:06:29;;;;;;;;;;;11.80;99.90;;;;;;5090667;28;20326;-75
2022/10/05 14:08:56;;;;;;;;;;;12.00;99.90;;;;;;5091860;28;20302;-74
2022/10/05 14:11:22;;;;;;;;;;;12.00;99.90;;;;;;5090960;28;19913;-74
2022/10/05 14:13:48;;;;;;;;;;;12.00;99.90;;;;;;5091411;28;19915;-74
2022/10/05 14:16:24;;;;;;;;;;;12.10;99.90;;;;;;5091862;28;19990;-74
2022/10/05 14:19:04;;;;;;;;;;;12.10;99.90;;;;;;5091783;28;19908;-73
2022/10/05 14:21:31;;;;;;;;;;;12.20;99.90;;;;;;5091046;28;19991;-74
2022/10/05 14:24:16;;;;;;;;;;;12.30;99.90;;;;;;5091699;28;19908;-74
2022/10/05 14:26:49;;;;;;;;;;;12.30;99.90;;;;;;5089586;28;20413;-75
2022/10/05 14:29:16;;;;;;;;;;;12.40;99.90;;;;;;5090347;28;20432;-75
2022/10/05 14:31:46;;;;;;;;;;;12.40;99.90;;;;;;5091314;28;19915;-75
2022/10/05 14:34:24;;;;;;;;;;;12.40;99.90;;;;;;5094776;28;19916;-74
2022/10/05 14:36:54;;;;;;;;;;;12.50;99.90;;;;;;5095047;28;19919;-74
2022/10/05 14:39:23;;;;;;;;;;;12.50;99.90;;;;;;5094680;28;19909;-74
2022/10/05 14:41:49;;;;;;;;;;;12.40;99.90;;;;;;5095152;28;19915;-74
2022/10/05 14:44:15;;;;;;;;;;;12.30;99.90;;;;;;5094931;28;19924;-75
2022/10/05 14:47:07;;;;;;;;;;;12.30;99.90;;;;;;5092926;28;19959;-74
2022/10/05 14:49:37;;;;;;;;;;;12.40;99.90;;;;;;5091979;28;19954;-74
2022/10/05 14:52:22;;;;;;;;;;;12.50;99.90;;;;;;5094580;28;19934;-74
2022/10/05 14:54:59;;;;;;;;;;;12.50;99.90;;;;;;5093695;28;19908;-75
2022/10/05 14:57:29;;;;;;;;;;;12.60;99.90;;;;;;5094248;28;19920;-74
2022/10/05 14:59:55;;;;;;;;;;;12.90;99.90;;;;;;5094782;28;19981;-74
2022/10/05 15:02:39;;;;;;;;;;;13.00;99.90;;;;;;5094593;28;20353;-77